TimeEST,TemperatureF,Dew PointF,Humidity,Sea Level PressureIn,VisibilityMPH,Wind Direction,Wind SpeedMPH,Gust SpeedMPH,PrecipitationIn,Events,Conditions,WindDirDegrees,DateUTC
12:52 AM,-9.4,-20.2,59,-9999,110.0,NW,44.9,49.5,N/A,,Partly Cloudy,320,2014-01-23 05:52:00
1:51 AM,-11.2,-18.4,70,-9999,120.0,NW,41.4,-,N/A,,Partly Cloudy,310,2014-01-23 06:51:00
2:49 AM,-11.2,-16.6,77,-9999,120.0,NW,36.8,-,N/A,,Partly Cloudy,320,2014-01-23 07:49:00
3:50 AM,-9.4,-16.6,71,-9999,120.0,NW,48.3,-,N/A,,Scattered Clouds,320,2014-01-23 08:50:00
4:53 AM,-11.2,-18.4,70,-9999,120.0,NW,43.7,51.8,N/A,,Scattered Clouds,310,2014-01-23 09:53:00
5:55 AM,-9.4,-14.8,77,-9999,120.0,NW,40.3,-,N/A,,Scattered Clouds,320,2014-01-23 10:55:00
6:52 AM,-9.4,-14.8,77,-9999,120.0,NW,35.7,39.1,N/A,,Scattered Clouds,320,2014-01-23 11:52:00
7:51 AM,-9.4,-9.4,100,-9999,0.1,NW,31.1,-,N/A,Fog,Light Freezing Fog,320,2014-01-23 12:51:00
8:57 AM,-9.4,-18.4,65,-9999,100.0,NW,23.0,-,N/A,,Mostly Cloudy,310,2014-01-23 13:57:00
9:55 AM,-7.6,-9.4,92,-9999,100.0,NW,13.8,-,N/A,Snow,Low Drifting Snow,310,2014-01-23 14:55:00
10:52 AM,-7.8,-8.0,99,-9999,75.0,NW,10.4,-,N/A,Snow,Low Drifting Snow,320,2014-01-23 15:52:00
11:53 AM,-7.6,-7.6,100,-9999,0.1,NW,9.2,-,N/A,Fog,Light Freezing Fog,320,2014-01-23 16:53:00
12:52 PM,-9.4,-9.4,100,-9999,0.1,NW,19.6,-,N/A,Fog,Light Freezing Fog,310,2014-01-23 17:52:00
1:47 PM,-9.4,-9.4,100,-9999,0.1,NW,23.0,-,N/A,Fog,Light Freezing Fog,310,2014-01-23 18:47:00
2:49 PM,-11.2,-11.2,100,-9999,0.1,WNW,24.2,-,N/A,Fog,Light Freezing Fog,300,2014-01-23 19:49:00
3:56 PM,-13.0,-13.0,100,-9999,0.1,WNW,20.7,31.1,N/A,Fog,Light Freezing Fog,300,2014-01-23 20:56:00
4:50 PM,-14.8,-14.8,100,-9999,0.1,WNW,31.1,-,N/A,Fog,Light Freezing Fog,300,2014-01-23 21:50:00
5:53 PM,-16.6,-16.6,100,-9999,0.1,WNW,35.7,-,N/A,Fog,Light Freezing Fog,300,2014-01-23 22:53:00
6:52 PM,-18.4,-18.4,100,-9999,0.1,WNW,36.8,41.4,N/A,Fog,Light Freezing Fog,290,2014-01-23 23:52:00
7:54 PM,-18.4,-18.4,100,-9999,0.1,WNW,32.2,-,N/A,Fog,Light Freezing Fog,290,2014-01-24 00:54:00
8:52 PM,-20.2,-20.2,100,-9999,0.1,WNW,24.2,-,N/A,Fog,Light Freezing Fog,300,2014-01-24 01:52:00
9:48 PM,-18.4,-18.4,100,-9999,0.1,WNW,25.3,-,N/A,Fog,Light Freezing Fog,300,2014-01-24 02:48:00
10:49 PM,-18.4,-18.4,100,-9999,0.1,WNW,24.2,-,N/A,Fog,Light Freezing Fog,300,2014-01-24 03:49:00
11:49 PM,-16.6,-29.2,53,-9999,120.0,WNW,27.6,-,N/A,,Partly Cloudy,300,2014-01-24 04:49:00